sensor_id;sensor_type;location;lat;lon;timestamp;P1;durP1;ratioP1;P2;durP2;ratioP2
4726;SDS011;2377;51.734;8.950;2022-11-30T00:00:27;33.93;;;19.23;;
4726;SDS011;2377;51.734;8.950;2022-11-30T00:02:55;63.43;;;22.03;;
4726;SDS011;2377;51.734;8.950;2022-11-30T00:05:22;42.13;;;19.53;;
4726;SDS011;2377;51.734;8.950;2022-11-30T00:07:50;41.73;;;20.60;;
4726;SDS011;2377;51.734;8.950;2022-11-30T00:10:18;45.87;;;20.77;;
4726;SDS011;2377;51.734;8.950;2022-11-30T00:12:46;40.37;;;20.83;;
4726;SDS011;2377;51.734;8.950;2022-11-30T00:15:15;38.40;;;20.03;;
4726;SDS011;2377;51.734;8.950;2022-11-30T00:17:43;42.73;;;20.70;;
4726;SDS011;2377;51.734;8.950;2022-11-30T00:20:10;41.80;;;19.20;;
4726;SDS011;2377;51.734;8.950;2022-11-30T00:22:39;44.87;;;22.80;;
4726;SDS011;2377;51.734;8.950;2022-11-30T00:25:07;41.30;;;21.00;;
4726;SDS011;2377;51.734;8.950;2022-11-30T00:27:35;44.93;;;21.20;;
4726;SDS011;2377;51.734;8.950;2022-11-30T00:30:02;52.73;;;23.47;;
4726;SDS011;2377;51.734;8.950;2022-11-30T00:32:32;68.00;;;24.50;;
4726;SDS011;2377;51.734;8.950;2022-11-30T00:35:00;35.80;;;19.53;;
4726;SDS011;2377;51.734;8.950;2022-11-30T00:37:27;33.50;;;20.03;;
4726;SDS011;2377;51.734;8.950;2022-11-30T00:39:54;49.67;;;23.07;;
4726;SDS011;2377;51.734;8.950;2022-11-30T00:42:21;36.77;;;20.40;;
4726;SDS011;2377;51.734;8.950;2022-11-30T00:44:49;33.40;;;17.90;;
4726;SDS011;2377;51.734;8.950;2022-11-30T00:47:16;38.17;;;19.83;;
4726;SDS011;2377;51.734;8.950;2022-11-30T00:49:45;41.23;;;19.73;;
4726;SDS011;2377;51.734;8.950;2022-11-30T00:52:12;33.10;;;18.43;;
4726;SDS011;2377;51.734;8.950;2022-11-30T00:54:39;40.33;;;19.90;;
4726;SDS011;2377;51.734;8.950;2022-11-30T00:57:06;34.90;;;17.50;;
4726;SDS011;2377;51.734;8.950;2022-11-30T00:59:33;32.70;;;17.10;;
4726;SDS011;2377;51.734;8.950;2022-11-30T01:02:01;32.10;;;17.70;;
4726;SDS011;2377;51.734;8.950;2022-11-30T01:04:28;30.93;;;15.80;;
4726;SDS011;2377;51.734;8.950;2022-11-30T01:06:56;32.63;;;18.03;;
4726;SDS011;2377;51.734;8.950;2022-11-30T01:09:24;33.33;;;17.13;;
4726;SDS011;2377;51.734;8.950;2022-11-30T01:11:51;32.93;;;18.17;;
4726;SDS011;2377;51.734;8.950;2022-11-30T01:14:18;37.40;;;18.30;;
4726;SDS011;2377;51.734;8.950;2022-11-30T01:16:45;42.40;;;20.87;;
4726;SDS011;2377;51.734;8.950;2022-11-30T01:19:12;48.77;;;22.80;;
4726;SDS011;2377;51.734;8.950;2022-11-30T01:21:40;41.00;;;20.03;;
4726;SDS011;2377;51.734;8.950;2022-11-30T01:24:08;35.97;;;19.07;;
4726;SDS011;2377;51.734;8.950;2022-11-30T01:26:36;39.80;;;19.47;;
4726;SDS011;2377;51.734;8.950;2022-11-30T01:29:03;35.43;;;19.53;;
4726;SDS011;2377;51.734;8.950;2022-11-30T01:31:30;38.57;;;19.90;;
4726;SDS011;2377;51.734;8.950;2022-11-30T01:33:57;36.93;;;18.80;;
4726;SDS011;2377;51.734;8.950;2022-11-30T01:36:25;32.90;;;18.53;;
4726;SDS011;2377;51.734;8.950;2022-11-30T01:38:53;39.17;;;19.77;;
4726;SDS011;2377;51.734;8.950;2022-11-30T01:41:25;41.07;;;21.30;;
4726;SDS011;2377;51.734;8.950;2022-11-30T01:43:55;44.97;;;21.27;;
4726;SDS011;2377;51.734;8.950;2022-11-30T01:47:10;41.63;;;20.53;;
4726;SDS011;2377;51.734;8.950;2022-11-30T01:49:39;40.20;;;21.73;;
4726;SDS011;2377;51.734;8.950;2022-11-30T01:52:11;40.70;;;20.43;;
4726;SDS011;2377;51.734;8.950;2022-11-30T01:54:44;43.67;;;22.00;;
4726;SDS011;2377;51.734;8.950;2022-11-30T01:57:23;35.57;;;19.57;;
4726;SDS011;2377;51.734;8.950;2022-11-30T01:59:56;35.27;;;18.57;;
4726;SDS011;2377;51.734;8.950;2022-11-30T02:02:31;37.70;;;19.80;;
4726;SDS011;2377;51.734;8.950;2022-11-30T02:05:08;63.37;;;25.20;;
4726;SDS011;2377;51.734;8.950;2022-11-30T02:07:37;55.17;;;25.67;;
4726;SDS011;2377;51.734;8.950;2022-11-30T02:10:05;40.10;;;20.70;;
4726;SDS011;2377;51.734;8.950;2022-11-30T02:12:43;44.97;;;21.43;;
4726;SDS011;2377;51.734;8.950;2022-11-30T02:15:39;48.70;;;24.10;;
4726;SDS011;2377;51.734;8.950;2022-11-30T02:18:21;51.30;;;24.27;;
4726;SDS011;2377;51.734;8.950;2022-11-30T02:21:02;37.37;;;19.90;;
4726;SDS011;2377;51.734;8.950;2022-11-30T02:23:48;44.03;;;21.30;;
4726;SDS011;2377;51.734;8.950;2022-11-30T02:27:07;40.33;;;21.00;;
4726;SDS011;2377;51.734;8.950;2022-11-30T02:29:49;43.50;;;21.40;;
4726;SDS011;2377;51.734;8.950;2022-11-30T02:32:24;45.30;;;21.87;;
4726;SDS011;2377;51.734;8.950;2022-11-30T02:34:57;45.23;;;21.37;;
4726;SDS011;2377;51.734;8.950;2022-11-30T02:37:28;42.90;;;22.10;;
4726;SDS011;2377;51.734;8.950;2022-11-30T02:39:57;46.57;;;22.33;;
4726;SDS011;2377;51.734;8.950;2022-11-30T02:42:24;44.67;;;19.93;;
4726;SDS011;2377;51.734;8.950;2022-11-30T02:44:53;42.97;;;22.00;;
4726;SDS011;2377;51.734;8.950;2022-11-30T02:47:21;45.70;;;22.63;;
4726;SDS011;2377;51.734;8.950;2022-11-30T02:49:54;38.53;;;21.27;;
4726;SDS011;2377;51.734;8.950;2022-11-30T02:52:27;48.33;;;22.07;;
4726;SDS011;2377;51.734;8.950;2022-11-30T02:54:58;36.73;;;20.50;;
4726;SDS011;2377;51.734;8.950;2022-11-30T02:57:26;44.73;;;22.07;;
4726;SDS011;2377;51.734;8.950;2022-11-30T02:59:54;37.40;;;21.20;;
4726;SDS011;2377;51.734;8.950;2022-11-30T03:02:23;43.70;;;22.90;;
4726;SDS011;2377;51.734;8.950;2022-11-30T03:04:51;40.33;;;21.43;;
4726;SDS011;2377;51.734;8.950;2022-11-30T03:07:18;40.40;;;20.30;;
4726;SDS011;2377;51.734;8.950;2022-11-30T03:09:45;38.23;;;19.90;;
4726;SDS011;2377;51.734;8.950;2022-11-30T03:12:12;43.03;;;21.10;;
4726;SDS011;2377;51.734;8.950;2022-11-30T03:14:40;35.77;;;19.27;;
4726;SDS011;2377;51.734;8.950;2022-11-30T03:17:08;34.43;;;18.60;;
4726;SDS011;2377;51.734;8.950;2022-11-30T03:19:35;33.73;;;16.77;;
4726;SDS011;2377;51.734;8.950;2022-11-30T03:22:03;28.10;;;15.13;;
4726;SDS011;2377;51.734;8.950;2022-11-30T03:24:30;31.77;;;16.30;;
4726;SDS011;2377;51.734;8.950;2022-11-30T03:26:58;26.63;;;13.97;;
4726;SDS011;2377;51.734;8.950;2022-11-30T03:29:25;25.90;;;13.27;;
4726;SDS011;2377;51.734;8.950;2022-11-30T03:31:53;22.10;;;12.33;;
4726;SDS011;2377;51.734;8.950;2022-11-30T03:34:21;20.97;;;12.27;;
4726;SDS011;2377;51.734;8.950;2022-11-30T03:36:51;20.43;;;11.90;;
4726;SDS011;2377;51.734;8.950;2022-11-30T03:39:19;21.67;;;12.70;;
4726;SDS011;2377;51.734;8.950;2022-11-30T03:41:46;24.93;;;12.73;;
4726;SDS011;2377;51.734;8.950;2022-11-30T03:44:13;20.30;;;12.10;;
4726;SDS011;2377;51.734;8.950;2022-11-30T03:46:40;22.83;;;12.53;;
4726;SDS011;2377;51.734;8.950;2022-11-30T03:49:08;28.63;;;14.10;;
4726;SDS011;2377;51.734;8.950;2022-11-30T03:51:36;25.33;;;13.33;;
4726;SDS011;2377;51.734;8.950;2022-11-30T03:54:04;25.30;;;13.83;;
4726;SDS011;2377;51.734;8.950;2022-11-30T03:56:31;28.27;;;14.70;;
4726;SDS011;2377;51.734;8.950;2022-11-30T03:58:58;26.50;;;14.43;;
4726;SDS011;2377;51.734;8.950;2022-11-30T04:01:25;26.80;;;15.30;;
4726;SDS011;2377;51.734;8.950;2022-11-30T04:03:53;28.03;;;15.77;;
4726;SDS011;2377;51.734;8.950;2022-11-30T04:06:20;27.47;;;15.50;;
4726;SDS011;2377;51.734;8.950;2022-11-30T04:08:49;33.37;;;16.20;;
4726;SDS011;2377;51.734;8.950;2022-11-30T04:11:16;29.10;;;16.23;;
4726;SDS011;2377;51.734;8.950;2022-11-30T04:13:43;26.67;;;15.03;;
4726;SDS011;2377;51.734;8.950;2022-11-30T04:16:11;31.77;;;16.37;;
4726;SDS011;2377;51.734;8.950;2022-11-30T04:18:38;26.07;;;14.87;;
4726;SDS011;2377;51.734;8.950;2022-11-30T04:21:06;28.27;;;15.37;;
4726;SDS011;2377;51.734;8.950;2022-11-30T04:23:35;26.93;;;15.07;;
4726;SDS011;2377;51.734;8.950;2022-11-30T04:26:06;35.07;;;16.30;;
4726;SDS011;2377;51.734;8.950;2022-11-30T04:28:41;27.37;;;15.33;;
4726;SDS011;2377;51.734;8.950;2022-11-30T04:31:09;24.60;;;12.73;;
4726;SDS011;2377;51.734;8.950;2022-11-30T04:33:36;22.90;;;13.30;;
4726;SDS011;2377;51.734;8.950;2022-11-30T04:36:04;23.40;;;12.47;;
4726;SDS011;2377;51.734;8.950;2022-11-30T04:38:41;20.97;;;11.90;;
4726;SDS011;2377;51.734;8.950;2022-11-30T04:41:10;29.90;;;14.20;;
4726;SDS011;2377;51.734;8.950;2022-11-30T04:43:37;23.97;;;12.70;;
4726;SDS011;2377;51.734;8.950;2022-11-30T04:46:05;21.57;;;11.87;;
4726;SDS011;2377;51.734;8.950;2022-11-30T04:48:32;28.30;;;14.60;;
4726;SDS011;2377;51.734;8.950;2022-11-30T04:51:00;20.00;;;12.10;;
4726;SDS011;2377;51.734;8.950;2022-11-30T04:53:30;21.23;;;11.33;;
4726;SDS011;2377;51.734;8.950;2022-11-30T04:55:57;21.07;;;12.10;;
4726;SDS011;2377;51.734;8.950;2022-11-30T04:58:30;23.63;;;13.30;;
4726;SDS011;2377;51.734;8.950;2022-11-30T05:00:57;32.47;;;15.30;;
4726;SDS011;2377;51.734;8.950;2022-11-30T05:03:25;21.33;;;12.67;;
4726;SDS011;2377;51.734;8.950;2022-11-30T05:05:52;35.33;;;16.67;;
4726;SDS011;2377;51.734;8.950;2022-11-30T05:08:19;28.50;;;16.43;;
4726;SDS011;2377;51.734;8.950;2022-11-30T05:10:50;26.73;;;15.07;;
4726;SDS011;2377;51.734;8.950;2022-11-30T05:13:18;27.43;;;14.37;;
4726;SDS011;2377;51.734;8.950;2022-11-30T05:15:48;25.20;;;13.90;;
4726;SDS011;2377;51.734;8.950;2022-11-30T05:18:17;32.33;;;16.83;;
4726;SDS011;2377;51.734;8.950;2022-11-30T05:20:48;28.17;;;15.23;;
4726;SDS011;2377;51.734;8.950;2022-11-30T05:23:16;27.10;;;14.37;;
4726;SDS011;2377;51.734;8.950;2022-11-30T05:25:45;28.20;;;12.93;;
4726;SDS011;2377;51.734;8.950;2022-11-30T05:28:13;23.13;;;12.43;;
4726;SDS011;2377;51.734;8.950;2022-11-30T05:30:41;24.70;;;14.50;;
4726;SDS011;2377;51.734;8.950;2022-11-30T05:33:11;27.07;;;14.47;;
4726;SDS011;2377;51.734;8.950;2022-11-30T05:35:39;25.90;;;13.30;;
4726;SDS011;2377;51.734;8.950;2022-11-30T05:38:07;29.83;;;14.67;;
4726;SDS011;2377;51.734;8.950;2022-11-30T05:40:34;27.23;;;14.07;;
4726;SDS011;2377;51.734;8.950;2022-11-30T05:43:02;26.83;;;13.63;;
4726;SDS011;2377;51.734;8.950;2022-11-30T05:45:30;22.93;;;11.83;;
4726;SDS011;2377;51.734;8.950;2022-11-30T05:47:57;25.43;;;13.77;;
4726;SDS011;2377;51.734;8.950;2022-11-30T05:50:26;22.77;;;12.87;;
4726;SDS011;2377;51.734;8.950;2022-11-30T05:52:53;24.30;;;12.80;;
4726;SDS011;2377;51.734;8.950;2022-11-30T05:55:21;22.43;;;11.60;;
4726;SDS011;2377;51.734;8.950;2022-11-30T05:57:49;21.47;;;10.93;;
4726;SDS011;2377;51.734;8.950;2022-11-30T06:00:17;18.03;;;10.20;;
4726;SDS011;2377;51.734;8.950;2022-11-30T06:02:46;19.67;;;10.37;;
4726;SDS011;2377;51.734;8.950;2022-11-30T06:05:14;16.73;;;9.23;;
4726;SDS011;2377;51.734;8.950;2022-11-30T06:07:42;16.13;;;9.63;;
4726;SDS011;2377;51.734;8.950;2022-11-30T06:10:13;15.40;;;9.83;;
4726;SDS011;2377;51.734;8.950;2022-11-30T06:12:40;16.73;;;9.90;;
4726;SDS011;2377;51.734;8.950;2022-11-30T06:15:07;22.00;;;10.90;;
4726;SDS011;2377;51.734;8.950;2022-11-30T06:17:36;16.03;;;9.10;;
4726;SDS011;2377;51.734;8.950;2022-11-30T06:20:04;19.40;;;9.70;;
4726;SDS011;2377;51.734;8.950;2022-11-30T06:22:33;18.40;;;10.30;;
4726;SDS011;2377;51.734;8.950;2022-11-30T06:25:02;19.30;;;10.10;;
4726;SDS011;2377;51.734;8.950;2022-11-30T06:27:29;17.70;;;10.30;;
4726;SDS011;2377;51.734;8.950;2022-11-30T06:29:57;33.07;;;12.80;;
4726;SDS011;2377;51.734;8.950;2022-11-30T06:32:24;19.00;;;10.57;;
4726;SDS011;2377;51.734;8.950;2022-11-30T06:34:51;20.43;;;10.73;;
4726;SDS011;2377;51.734;8.950;2022-11-30T06:37:18;20.07;;;10.97;;
4726;SDS011;2377;51.734;8.950;2022-11-30T06:39:45;22.20;;;10.40;;
4726;SDS011;2377;51.734;8.950;2022-11-30T06:42:14;19.10;;;10.77;;
4726;SDS011;2377;51.734;8.950;2022-11-30T06:44:43;21.93;;;11.90;;
4726;SDS011;2377;51.734;8.950;2022-11-30T06:47:11;20.63;;;10.80;;
4726;SDS011;2377;51.734;8.950;2022-11-30T06:49:38;16.47;;;10.17;;
4726;SDS011;2377;51.734;8.950;2022-11-30T06:52:05;16.53;;;10.13;;
4726;SDS011;2377;51.734;8.950;2022-11-30T06:54:32;19.87;;;11.30;;
4726;SDS011;2377;51.734;8.950;2022-11-30T06:57:00;20.70;;;11.63;;
4726;SDS011;2377;51.734;8.950;2022-11-30T06:59:28;54.97;;;14.30;;
4726;SDS011;2377;51.734;8.950;2022-11-30T07:01:56;40.33;;;13.13;;
4726;SDS011;2377;51.734;8.950;2022-11-30T07:04:23;28.97;;;12.93;;
4726;SDS011;2377;51.734;8.950;2022-11-30T07:06:51;21.07;;;11.63;;
4726;SDS011;2377;51.734;8.950;2022-11-30T07:09:18;76.80;;;12.70;;
4726;SDS011;2377;51.734;8.950;2022-11-30T07:11:45;33.27;;;12.90;;
4726;SDS011;2377;51.734;8.950;2022-11-30T07:14:12;20.10;;;12.17;;
4726;SDS011;2377;51.734;8.950;2022-11-30T07:16:41;17.63;;;11.53;;
4726;SDS011;2377;51.734;8.950;2022-11-30T07:19:08;80.13;;;11.50;;
4726;SDS011;2377;51.734;8.950;2022-11-30T07:21:35;330.10;;;20.43;;
4726;SDS011;2377;51.734;8.950;2022-11-30T07:24:03;51.33;;;13.90;;
4726;SDS011;2377;51.734;8.950;2022-11-30T07:26:48;21.10;;;12.93;;
4726;SDS011;2377;51.734;8.950;2022-11-30T07:29:15;19.13;;;11.83;;
4726;SDS011;2377;51.734;8.950;2022-11-30T07:31:48;26.03;;;12.87;;
4726;SDS011;2377;51.734;8.950;2022-11-30T07:34:16;22.57;;;13.30;;
4726;SDS011;2377;51.734;8.950;2022-11-30T07:36:44;24.23;;;12.57;;
4726;SDS011;2377;51.734;8.950;2022-11-30T07:39:12;36.57;;;14.23;;
4726;SDS011;2377;51.734;8.950;2022-11-30T07:41:40;36.37;;;13.50;;
4726;SDS011;2377;51.734;8.950;2022-11-30T07:44:08;22.60;;;12.00;;
4726;SDS011;2377;51.734;8.950;2022-11-30T07:46:36;55.43;;;13.90;;
4726;SDS011;2377;51.734;8.950;2022-11-30T07:49:06;26.00;;;13.63;;
4726;SDS011;2377;51.734;8.950;2022-11-30T07:51:35;47.87;;;13.93;;
4726;SDS011;2377;51.734;8.950;2022-11-30T07:54:03;39.50;;;13.80;;
4726;SDS011;2377;51.734;8.950;2022-11-30T07:56:31;20.33;;;11.33;;
4726;SDS011;2377;51.734;8.950;2022-11-30T07:58:59;16.63;;;10.97;;
4726;SDS011;2377;51.734;8.950;2022-11-30T08:01:28;21.17;;;12.37;;
4726;SDS011;2377;51.734;8.950;2022-11-30T08:03:57;19.50;;;11.23;;
4726;SDS011;2377;51.734;8.950;2022-11-30T08:06:27;21.97;;;12.20;;
4726;SDS011;2377;51.734;8.950;2022-11-30T08:08:57;24.80;;;12.53;;
4726;SDS011;2377;51.734;8.950;2022-11-30T08:11:27;21.80;;;11.57;;
4726;SDS011;2377;51.734;8.950;2022-11-30T08:13:57;19.87;;;11.73;;
4726;SDS011;2377;51.734;8.950;2022-11-30T08:16:25;32.53;;;13.30;;
4726;SDS011;2377;51.734;8.950;2022-11-30T08:18:54;22.43;;;12.70;;
4726;SDS011;2377;51.734;8.950;2022-11-30T08:21:23;21.50;;;11.57;;
4726;SDS011;2377;51.734;8.950;2022-11-30T08:23:52;38.53;;;14.00;;
4726;SDS011;2377;51.734;8.950;2022-11-30T08:26:22;99.73;;;14.37;;
4726;SDS011;2377;51.734;8.950;2022-11-30T08:28:51;18.30;;;11.00;;
4726;SDS011;2377;51.734;8.950;2022-11-30T08:31:20;18.03;;;10.30;;
4726;SDS011;2377;51.734;8.950;2022-11-30T08:33:53;21.50;;;11.73;;
4726;SDS011;2377;51.734;8.950;2022-11-30T08:36:22;18.70;;;11.23;;
4726;SDS011;2377;51.734;8.950;2022-11-30T08:38:53;18.50;;;11.40;;
4726;SDS011;2377;51.734;8.950;2022-11-30T08:41:22;22.03;;;11.17;;
4726;SDS011;2377;51.734;8.950;2022-11-30T08:43:51;19.13;;;10.40;;
4726;SDS011;2377;51.734;8.950;2022-11-30T08:46:19;183.03;;;17.63;;
4726;SDS011;2377;51.734;8.950;2022-11-30T08:48:48;19.87;;;11.70;;
4726;SDS011;2377;51.734;8.950;2022-11-30T08:51:17;24.80;;;11.43;;
4726;SDS011;2377;51.734;8.950;2022-11-30T08:53:46;19.27;;;10.37;;
4726;SDS011;2377;51.734;8.950;2022-11-30T08:56:15;22.13;;;10.60;;
4726;SDS011;2377;51.734;8.950;2022-11-30T08:58:45;57.33;;;11.60;;
4726;SDS011;2377;51.734;8.950;2022-11-30T09:01:13;25.00;;;12.40;;
4726;SDS011;2377;51.734;8.950;2022-11-30T09:03:43;45.90;;;12.40;;
4726;SDS011;2377;51.734;8.950;2022-11-30T09:06:12;24.60;;;11.30;;
4726;SDS011;2377;51.734;8.950;2022-11-30T09:08:43;16.53;;;8.63;;
4726;SDS011;2377;51.734;8.950;2022-11-30T09:11:12;22.23;;;10.60;;
4726;SDS011;2377;51.734;8.950;2022-11-30T09:13:45;21.23;;;10.30;;
4726;SDS011;2377;51.734;8.950;2022-11-30T09:16:14;22.73;;;10.67;;
4726;SDS011;2377;51.734;8.950;2022-11-30T09:18:43;23.53;;;10.93;;
4726;SDS011;2377;51.734;8.950;2022-11-30T09:21:12;24.97;;;10.63;;
4726;SDS011;2377;51.734;8.950;2022-11-30T09:23:42;18.40;;;9.67;;
4726;SDS011;2377;51.734;8.950;2022-11-30T09:26:11;23.63;;;10.20;;
4726;SDS011;2377;51.734;8.950;2022-11-30T09:28:43;21.30;;;10.77;;
4726;SDS011;2377;51.734;8.950;2022-11-30T09:31:12;15.70;;;7.97;;
4726;SDS011;2377;51.734;8.950;2022-11-30T09:33:41;16.80;;;9.17;;
4726;SDS011;2377;51.734;8.950;2022-11-30T09:36:10;22.07;;;10.33;;
4726;SDS011;2377;51.734;8.950;2022-11-30T09:38:39;20.93;;;10.40;;
4726;SDS011;2377;51.734;8.950;2022-11-30T09:41:13;31.83;;;10.37;;
4726;SDS011;2377;51.734;8.950;2022-11-30T09:44:15;36.60;;;12.13;;
4726;SDS011;2377;51.734;8.950;2022-11-30T09:46:53;18.70;;;9.80;;
4726;SDS011;2377;51.734;8.950;2022-11-30T09:49:34;26.60;;;10.47;;
4726;SDS011;2377;51.734;8.950;2022-11-30T09:52:08;17.73;;;8.80;;
4726;SDS011;2377;51.734;8.950;2022-11-30T09:54:43;16.53;;;8.80;;
4726;SDS011;2377;51.734;8.950;2022-11-30T09:57:15;25.77;;;10.23;;
4726;SDS011;2377;51.734;8.950;2022-11-30T09:59:54;16.67;;;8.63;;
4726;SDS011;2377;51.734;8.950;2022-11-30T10:02:25;18.93;;;9.47;;
4726;SDS011;2377;51.734;8.950;2022-11-30T10:04:56;34.23;;;10.73;;
4726;SDS011;2377;51.734;8.950;2022-11-30T10:07:31;26.10;;;10.87;;
4726;SDS011;2377;51.734;8.950;2022-11-30T10:10:19;26.23;;;11.03;;
4726;SDS011;2377;51.734;8.950;2022-11-30T10:12:59;16.27;;;8.97;;
4726;SDS011;2377;51.734;8.950;2022-11-30T10:15:49;29.07;;;11.30;;
4726;SDS011;2377;51.734;8.950;2022-11-30T10:18:33;17.90;;;9.23;;
4726;SDS011;2377;51.734;8.950;2022-11-30T10:21:16;27.47;;;10.50;;
4726;SDS011;2377;51.734;8.950;2022-11-30T10:24:08;20.23;;;9.40;;
4726;SDS011;2377;51.734;8.950;2022-11-30T10:26:52;16.10;;;8.77;;
4726;SDS011;2377;51.734;8.950;2022-11-30T10:29:24;18.60;;;9.00;;
4726;SDS011;2377;51.734;8.950;2022-11-30T10:31:59;15.40;;;8.87;;
4726;SDS011;2377;51.734;8.950;2022-11-30T10:34:39;17.90;;;8.50;;
4726;SDS011;2377;51.734;8.950;2022-11-30T10:37:11;14.70;;;7.97;;
4726;SDS011;2377;51.734;8.950;2022-11-30T10:39:46;20.20;;;9.43;;
4726;SDS011;2377;51.734;8.950;2022-11-30T10:42:26;17.07;;;9.37;;
4726;SDS011;2377;51.734;8.950;2022-11-30T10:45:00;18.83;;;9.67;;
4726;SDS011;2377;51.734;8.950;2022-11-30T10:47:36;21.77;;;9.90;;
4726;SDS011;2377;51.734;8.950;2022-11-30T10:50:12;27.57;;;11.87;;
4726;SDS011;2377;51.734;8.950;2022-11-30T10:52:43;109.47;;;11.63;;
4726;SDS011;2377;51.734;8.950;2022-11-30T10:55:16;39.13;;;10.67;;
4726;SDS011;2377;51.734;8.950;2022-11-30T10:57:48;22.70;;;10.03;;
4726;SDS011;2377;51.734;8.950;2022-11-30T11:00:21;17.97;;;9.47;;
4726;SDS011;2377;51.734;8.950;2022-11-30T11:02:50;18.60;;;10.37;;
4726;SDS011;2377;51.734;8.950;2022-11-30T11:05:18;18.87;;;9.37;;
4726;SDS011;2377;51.734;8.950;2022-11-30T11:07:50;19.13;;;9.77;;
4726;SDS011;2377;51.734;8.950;2022-11-30T11:10:26;15.57;;;9.00;;
4726;SDS011;2377;51.734;8.950;2022-11-30T11:12:58;18.60;;;8.97;;
4726;SDS011;2377;51.734;8.950;2022-11-30T11:15:27;15.70;;;8.40;;
4726;SDS011;2377;51.734;8.950;2022-11-30T11:20:50;14.67;;;8.13;;
4726;SDS011;2377;51.734;8.950;2022-11-30T11:23:29;14.97;;;9.37;;
4726;SDS011;2377;51.734;8.950;2022-11-30T11:26:00;14.50;;;8.13;;
4726;SDS011;2377;51.734;8.950;2022-11-30T11:28:29;34.40;;;8.90;;
4726;SDS011;2377;51.734;8.950;2022-11-30T11:31:13;22.70;;;10.47;;
4726;SDS011;2377;51.734;8.950;2022-11-30T11:33:49;15.67;;;8.57;;
4726;SDS011;2377;51.734;8.950;2022-11-30T11:36:24;14.80;;;7.93;;
4726;SDS011;2377;51.734;8.950;2022-11-30T11:38:54;16.60;;;9.37;;
4726;SDS011;2377;51.734;8.950;2022-11-30T11:41:24;14.33;;;9.30;;
4726;SDS011;2377;51.734;8.950;2022-11-30T11:43:57;24.10;;;10.73;;
4726;SDS011;2377;51.734;8.950;2022-11-30T11:46:29;16.00;;;8.83;;
4726;SDS011;2377;51.734;8.950;2022-11-30T11:48:58;25.37;;;10.67;;
4726;SDS011;2377;51.734;8.950;2022-11-30T11:51:31;15.43;;;8.13;;
4726;SDS011;2377;51.734;8.950;2022-11-30T11:54:01;16.37;;;8.70;;
4726;SDS011;2377;51.734;8.950;2022-11-30T11:56:45;13.10;;;7.70;;
4726;SDS011;2377;51.734;8.950;2022-11-30T11:59:13;21.73;;;8.80;;
4726;SDS011;2377;51.734;8.950;2022-11-30T12:01:49;20.53;;;8.63;;
4726;SDS011;2377;51.734;8.950;2022-11-30T12:04:30;11.83;;;7.30;;
4726;SDS011;2377;51.734;8.950;2022-11-30T12:07:11;15.80;;;8.60;;
4726;SDS011;2377;51.734;8.950;2022-11-30T12:09:52;12.80;;;7.60;;
4726;SDS011;2377;51.734;8.950;2022-11-30T12:12:31;15.43;;;7.73;;
4726;SDS011;2377;51.734;8.950;2022-11-30T12:14:58;13.40;;;7.33;;
4726;SDS011;2377;51.734;8.950;2022-11-30T12:17:32;12.13;;;6.73;;
4726;SDS011;2377;51.734;8.950;2022-11-30T12:20:17;16.50;;;9.47;;
4726;SDS011;2377;51.734;8.950;2022-11-30T12:23:00;14.77;;;7.90;;
4726;SDS011;2377;51.734;8.950;2022-11-30T12:25:52;14.90;;;7.57;;
4726;SDS011;2377;51.734;8.950;2022-11-30T12:28:33;16.80;;;9.07;;
4726;SDS011;2377;51.734;8.950;2022-11-30T12:31:13;17.30;;;8.43;;
4726;SDS011;2377;51.734;8.950;2022-11-30T12:33:47;15.10;;;8.10;;
4726;SDS011;2377;51.734;8.950;2022-11-30T12:36:35;16.30;;;7.80;;
4726;SDS011;2377;51.734;8.950;2022-11-30T12:39:22;18.80;;;8.90;;
4726;SDS011;2377;51.734;8.950;2022-11-30T12:42:04;17.40;;;8.93;;
4726;SDS011;2377;51.734;8.950;2022-11-30T12:44:41;19.30;;;9.50;;
4726;SDS011;2377;51.734;8.950;2022-11-30T12:47:28;16.87;;;8.13;;
4726;SDS011;2377;51.734;8.950;2022-11-30T12:50:18;14.37;;;8.50;;
4726;SDS011;2377;51.734;8.950;2022-11-30T12:53:05;13.70;;;7.90;;
4726;SDS011;2377;51.734;8.950;2022-11-30T12:55:48;18.67;;;9.17;;
4726;SDS011;2377;51.734;8.950;2022-11-30T12:58:34;17.43;;;8.50;;
4726;SDS011;2377;51.734;8.950;2022-11-30T13:01:14;14.50;;;9.00;;
4726;SDS011;2377;51.734;8.950;2022-11-30T13:04:02;21.03;;;8.90;;
4726;SDS011;2377;51.734;8.950;2022-11-30T13:06:39;14.90;;;8.27;;
4726;SDS011;2377;51.734;8.950;2022-11-30T13:09:12;15.63;;;9.33;;
4726;SDS011;2377;51.734;8.950;2022-11-30T13:11:51;13.90;;;8.80;;
4726;SDS011;2377;51.734;8.950;2022-11-30T13:14:25;20.70;;;8.90;;
4726;SDS011;2377;51.734;8.950;2022-11-30T13:16:57;20.17;;;9.60;;
4726;SDS011;2377;51.734;8.950;2022-11-30T13:19:41;16.80;;;9.03;;
4726;SDS011;2377;51.734;8.950;2022-11-30T13:22:21;16.03;;;8.93;;
4726;SDS011;2377;51.734;8.950;2022-11-30T13:24:59;20.53;;;13.30;;
4726;SDS011;2377;51.734;8.950;2022-11-30T13:27:43;16.43;;;10.20;;
4726;SDS011;2377;51.734;8.950;2022-11-30T13:30:21;20.43;;;9.03;;
4726;SDS011;2377;51.734;8.950;2022-11-30T13:36:20;18.80;;;11.30;;
4726;SDS011;2377;51.734;8.950;2022-11-30T13:39:07;17.83;;;11.13;;
4726;SDS011;2377;51.734;8.950;2022-11-30T13:41:49;18.83;;;10.93;;
4726;SDS011;2377;51.734;8.950;2022-11-30T13:47:54;33.73;;;22.07;;
4726;SDS011;2377;51.734;8.950;2022-11-30T13:50:25;28.70;;;18.40;;
4726;SDS011;2377;51.734;8.950;2022-11-30T13:53:06;18.33;;;12.90;;
4726;SDS011;2377;51.734;8.950;2022-11-30T13:55:50;22.30;;;14.40;;
4726;SDS011;2377;51.734;8.950;2022-11-30T13:58:25;19.80;;;12.10;;
4726;SDS011;2377;51.734;8.950;2022-11-30T14:06:56;18.93;;;10.17;;
4726;SDS011;2377;51.734;8.950;2022-11-30T14:15:29;17.30;;;11.77;;
4726;SDS011;2377;51.734;8.950;2022-11-30T14:18:24;14.40;;;8.50;;
4726;SDS011;2377;51.734;8.950;2022-11-30T14:21:14;16.80;;;11.50;;
4726;SDS011;2377;51.734;8.950;2022-11-30T14:23:49;19.77;;;12.00;;
4726;SDS011;2377;51.734;8.950;2022-11-30T14:26:26;19.17;;;14.13;;
4726;SDS011;2377;51.734;8.950;2022-11-30T14:29:02;16.80;;;12.27;;
4726;SDS011;2377;51.734;8.950;2022-11-30T14:31:41;21.43;;;15.23;;
4726;SDS011;2377;51.734;8.950;2022-11-30T14:34:22;15.43;;;10.93;;
4726;SDS011;2377;51.734;8.950;2022-11-30T14:36:54;36.40;;;24.83;;
4726;SDS011;2377;51.734;8.950;2022-11-30T14:39:30;34.27;;;24.77;;
4726;SDS011;2377;51.734;8.950;2022-11-30T14:42:00;15.40;;;10.33;;
4726;SDS011;2377;51.734;8.950;2022-11-30T14:44:32;31.43;;;25.60;;
4726;SDS011;2377;51.734;8.950;2022-11-30T14:47:11;29.13;;;21.53;;
4726;SDS011;2377;51.734;8.950;2022-11-30T14:49:48;33.57;;;27.73;;
4726;SDS011;2377;51.734;8.950;2022-11-30T14:52:21;31.00;;;24.80;;
4726;SDS011;2377;51.734;8.950;2022-11-30T14:55:13;15.63;;;11.43;;
4726;SDS011;2377;51.734;8.950;2022-11-30T14:57:56;20.70;;;16.00;;
4726;SDS011;2377;51.734;8.950;2022-11-30T15:00:40;11.80;;;7.47;;
4726;SDS011;2377;51.734;8.950;2022-11-30T15:03:15;13.43;;;7.50;;
4726;SDS011;2377;51.734;8.950;2022-11-30T15:05:51;20.53;;;11.00;;
4726;SDS011;2377;51.734;8.950;2022-11-30T15:08:21;15.03;;;9.07;;
4726;SDS011;2377;51.734;8.950;2022-11-30T15:10:52;21.23;;;11.47;;
4726;SDS011;2377;51.734;8.950;2022-11-30T15:13:28;24.03;;;14.33;;
4726;SDS011;2377;51.734;8.950;2022-11-30T15:15:56;24.83;;;11.03;;
4726;SDS011;2377;51.734;8.950;2022-11-30T15:18:24;35.53;;;15.10;;
4726;SDS011;2377;51.734;8.950;2022-11-30T15:20:54;26.93;;;14.40;;
4726;SDS011;2377;51.734;8.950;2022-11-30T15:23:26;15.17;;;10.77;;
4726;SDS011;2377;51.734;8.950;2022-11-30T15:25:55;16.33;;;9.83;;
4726;SDS011;2377;51.734;8.950;2022-11-30T15:28:29;15.97;;;9.90;;
4726;SDS011;2377;51.734;8.950;2022-11-30T15:31:03;19.30;;;13.87;;
4726;SDS011;2377;51.734;8.950;2022-11-30T15:33:39;13.50;;;9.53;;
4726;SDS011;2377;51.734;8.950;2022-11-30T15:36:11;16.73;;;8.67;;
4726;SDS011;2377;51.734;8.950;2022-11-30T15:38:39;18.60;;;7.77;;
4726;SDS011;2377;51.734;8.950;2022-11-30T15:41:15;39.93;;;8.53;;